Terminal Aerodrome Forecast
Issued by NWS

Home | Current Version | Previous Version | Text Only | Print | Product List | Glossary On
Versions: 1 2 3 4 5 6 7 8 9 10 11 12 13 14 15 16 17
000
FTUS45 KLKN 181140
TAFELY
TAF
KELY 181140Z 1812/1912 16013KT P6SM SCT200
     FM181700 18008KT P6SM BKN120
     FM190300 18017G27KT P6SM -SHSN SCT025 OVC040
     FM190900 18015G25KT 4SM -SHSN OVC012=

USA.gov is the U.S. government's official web portal to all federal, state and local government web resources and services.